sensor_id;sensor_type;location;lat;lon;timestamp;pressure;altitude;pressure_sealevel;temperature;humidity
10948;BME280;5526;42.070;24.752;2023-03-21T00:02:08;98921.09;;;12.21;71.99
10948;BME280;5526;42.070;24.752;2023-03-21T00:04:35;98923.19;;;12.19;72.21
10948;BME280;5526;42.070;24.752;2023-03-21T00:07:02;98920.81;;;12.18;72.21
10948;BME280;5526;42.070;24.752;2023-03-21T00:09:31;98908.16;;;12.15;72.50
10948;BME280;5526;42.070;24.752;2023-03-21T00:11:58;98916.63;;;12.12;72.08
10948;BME280;5526;42.070;24.752;2023-03-21T00:14:27;98912.91;;;12.13;71.83
10948;BME280;5526;42.070;24.752;2023-03-21T00:16:57;98897.09;;;12.13;71.33
10948;BME280;5526;42.070;24.752;2023-03-21T00:19:25;98905.81;;;12.13;71.14
10948;BME280;5526;42.070;24.752;2023-03-21T00:21:53;98892.88;;;12.12;71.16
10948;BME280;5526;42.070;24.752;2023-03-21T00:24:20;98896.31;;;12.07;71.05
10948;BME280;5526;42.070;24.752;2023-03-21T00:26:49;98889.19;;;12.08;70.80
10948;BME280;5526;42.070;24.752;2023-03-21T00:29:16;98884.19;;;12.01;71.26
10948;BME280;5526;42.070;24.752;2023-03-21T00:31:43;98883.13;;;12.02;70.99
10948;BME280;5526;42.070;24.752;2023-03-21T00:34:10;98875.47;;;12.01;70.97
10948;BME280;5526;42.070;24.752;2023-03-21T00:36:37;98886.28;;;11.99;70.68
10948;BME280;5526;42.070;24.752;2023-03-21T00:39:04;98883.38;;;12.01;70.33
10948;BME280;5526;42.070;24.752;2023-03-21T00:41:32;98874.66;;;12.00;70.02
10948;BME280;5526;42.070;24.752;2023-03-21T00:44:01;98875.22;;;11.97;69.81
10948;BME280;5526;42.070;24.752;2023-03-21T00:46:28;98863.88;;;11.87;69.19
10948;BME280;5526;42.070;24.752;2023-03-21T00:48:55;98872.31;;;11.94;68.30
10948;BME280;5526;42.070;24.752;2023-03-21T00:51:23;98872.84;;;11.96;67.80
10948;BME280;5526;42.070;24.752;2023-03-21T00:53:53;98863.59;;;11.93;67.51
10948;BME280;5526;42.070;24.752;2023-03-21T00:56:20;98866.53;;;11.92;67.11
10948;BME280;5526;42.070;24.752;2023-03-21T00:58:48;98858.59;;;11.87;66.85
10948;BME280;5526;42.070;24.752;2023-03-21T01:01:17;98853.06;;;11.88;65.60
10948;BME280;5526;42.070;24.752;2023-03-21T01:03:44;98848.31;;;11.80;65.17
10948;BME280;5526;42.070;24.752;2023-03-21T01:06:17;98844.34;;;11.83;64.55
10948;BME280;5526;42.070;24.752;2023-03-21T01:08:47;98835.41;;;11.79;64.24
10948;BME280;5526;42.070;24.752;2023-03-21T01:11:16;98834.63;;;11.78;64.57
10948;BME280;5526;42.070;24.752;2023-03-21T01:13:44;98835.94;;;11.76;64.84
10948;BME280;5526;42.070;24.752;2023-03-21T01:16:11;98826.19;;;11.71;64.93
10948;BME280;5526;42.070;24.752;2023-03-21T01:18:40;98831.44;;;11.76;65.35
10948;BME280;5526;42.070;24.752;2023-03-21T01:21:10;98828.31;;;11.74;66.03
10948;BME280;5526;42.070;24.752;2023-03-21T01:23:39;98834.34;;;11.70;66.54
10948;BME280;5526;42.070;24.752;2023-03-21T01:26:07;98833.56;;;11.64;67.38
10948;BME280;5526;42.070;24.752;2023-03-21T01:28:36;98828.56;;;11.63;68.09
10948;BME280;5526;42.070;24.752;2023-03-21T01:31:04;98828.28;;;11.64;67.96
10948;BME280;5526;42.070;24.752;2023-03-21T01:33:32;98826.44;;;11.70;68.05
10948;BME280;5526;42.070;24.752;2023-03-21T01:36:01;98803.50;;;11.55;68.61
10948;BME280;5526;42.070;24.752;2023-03-21T01:38:29;98820.13;;;11.66;69.05
10948;BME280;5526;42.070;24.752;2023-03-21T01:40:58;98814.84;;;11.66;69.80
10948;BME280;5526;42.070;24.752;2023-03-21T01:43:28;98812.47;;;11.64;69.70
10948;BME280;5526;42.070;24.752;2023-03-21T01:46:11;98810.63;;;11.65;66.88
10948;BME280;5526;42.070;24.752;2023-03-21T01:48:47;98813.28;;;11.65;66.21
10948;BME280;5526;42.070;24.752;2023-03-21T01:51:18;98807.47;;;11.68;65.56
10948;BME280;5526;42.070;24.752;2023-03-21T01:53:46;98805.09;;;11.66;65.99
10948;BME280;5526;42.070;24.752;2023-03-21T01:56:17;98798.47;;;11.59;66.09
10948;BME280;5526;42.070;24.752;2023-03-21T01:58:46;98789.00;;;11.53;66.51
10948;BME280;5526;42.070;24.752;2023-03-21T02:01:14;98786.34;;;11.58;67.13
10948;BME280;5526;42.070;24.752;2023-03-21T02:03:44;98784.53;;;11.63;67.47
10948;BME280;5526;42.070;24.752;2023-03-21T02:06:22;98780.03;;;11.64;68.20
10948;BME280;5526;42.070;24.752;2023-03-21T02:08:57;98776.91;;;11.62;69.03
10948;BME280;5526;42.070;24.752;2023-03-21T02:11:26;98778.97;;;11.60;70.31
10948;BME280;5526;42.070;24.752;2023-03-21T02:13:57;98767.09;;;11.57;71.23
10948;BME280;5526;42.070;24.752;2023-03-21T02:16:28;98771.38;;;11.63;71.73
10948;BME280;5526;42.070;24.752;2023-03-21T02:19:09;98774.50;;;11.65;72.10
10948;BME280;5526;42.070;24.752;2023-03-21T02:22:06;98785.88;;;11.61;73.48
10948;BME280;5526;42.070;24.752;2023-03-21T02:24:58;98786.34;;;11.58;73.97
10948;BME280;5526;42.070;24.752;2023-03-21T02:27:33;98765.28;;;11.48;74.36
10948;BME280;5526;42.070;24.752;2023-03-21T02:30:33;98771.06;;;11.60;75.12
10948;BME280;5526;42.070;24.752;2023-03-21T02:33:42;98773.44;;;11.56;75.59
10948;BME280;5526;42.070;24.752;2023-03-21T02:36:23;98774.25;;;11.42;76.05
10948;BME280;5526;42.070;24.752;2023-03-21T02:39:00;98784.78;;;11.37;76.41
10948;BME280;5526;42.070;24.752;2023-03-21T02:41:39;98785.81;;;11.36;76.49
10948;BME280;5526;42.070;24.752;2023-03-21T02:44:17;98791.91;;;11.36;77.03
10948;BME280;5526;42.070;24.752;2023-03-21T02:46:49;98796.09;;;11.37;77.04
10948;BME280;5526;42.070;24.752;2023-03-21T02:49:21;98797.69;;;11.43;76.87
10948;BME280;5526;42.070;24.752;2023-03-21T02:51:50;98802.16;;;11.43;77.16
10948;BME280;5526;42.070;24.752;2023-03-21T02:54:21;98795.84;;;11.34;78.21
10948;BME280;5526;42.070;24.752;2023-03-21T02:56:51;98808.44;;;11.17;79.33
10948;BME280;5526;42.070;24.752;2023-03-21T02:59:20;98803.72;;;11.14;78.99
10948;BME280;5526;42.070;24.752;2023-03-21T03:01:49;98800.56;;;11.12;79.77
10948;BME280;5526;42.070;24.752;2023-03-21T03:04:18;98800.03;;;11.15;79.74
10948;BME280;5526;42.070;24.752;2023-03-21T03:06:55;98798.44;;;11.09;80.68
10948;BME280;5526;42.070;24.752;2023-03-21T03:09:30;98807.66;;;11.06;80.75
10948;BME280;5526;42.070;24.752;2023-03-21T03:12:10;98799.19;;;10.99;80.40
10948;BME280;5526;42.070;24.752;2023-03-21T03:14:49;98803.66;;;10.89;81.61
10948;BME280;5526;42.070;24.752;2023-03-21T03:17:24;98803.91;;;10.72;82.89
10948;BME280;5526;42.070;24.752;2023-03-21T03:20:25;98807.25;;;10.58;83.92
10948;BME280;5526;42.070;24.752;2023-03-21T03:23:01;98799.84;;;10.50;83.77
10948;BME280;5526;42.070;24.752;2023-03-21T03:25:35;98799.81;;;10.40;83.91
10948;BME280;5526;42.070;24.752;2023-03-21T03:28:06;98800.56;;;10.30;83.90
10948;BME280;5526;42.070;24.752;2023-03-21T03:30:35;98812.66;;;10.31;83.56
10948;BME280;5526;42.070;24.752;2023-03-21T03:33:03;98812.69;;;10.00;85.40
10948;BME280;5526;42.070;24.752;2023-03-21T03:35:32;98812.75;;;10.05;85.51
10948;BME280;5526;42.070;24.752;2023-03-21T03:38:01;98811.34;;;9.92;85.37
10948;BME280;5526;42.070;24.752;2023-03-21T03:40:35;98812.03;;;9.78;86.13
10948;BME280;5526;42.070;24.752;2023-03-21T03:43:09;98805.47;;;9.75;86.25
10948;BME280;5526;42.070;24.752;2023-03-21T03:45:42;98804.69;;;9.80;85.75
10948;BME280;5526;42.070;24.752;2023-03-21T03:48:14;98800.09;;;9.60;85.80
10948;BME280;5526;42.070;24.752;2023-03-21T03:50:47;98806.66;;;9.58;85.97
10948;BME280;5526;42.070;24.752;2023-03-21T03:53:19;98790.31;;;9.51;85.23
10948;BME280;5526;42.070;24.752;2023-03-21T03:55:50;98806.66;;;9.58;85.05
10948;BME280;5526;42.070;24.752;2023-03-21T03:58:20;98801.16;;;9.59;84.69
10948;BME280;5526;42.070;24.752;2023-03-21T04:00:47;98793.56;;;9.68;83.86
10948;BME280;5526;42.070;24.752;2023-03-21T04:03:14;98791.78;;;9.73;83.29
10948;BME280;5526;42.070;24.752;2023-03-21T04:05:41;98795.78;;;9.81;83.14
10948;BME280;5526;42.070;24.752;2023-03-21T04:08:11;98797.38;;;9.87;82.28
10948;BME280;5526;42.070;24.752;2023-03-21T04:10:38;98802.97;;;9.95;82.30
10948;BME280;5526;42.070;24.752;2023-03-21T04:13:07;98801.44;;;10.04;81.68
10948;BME280;5526;42.070;24.752;2023-03-21T04:15:34;98801.16;;;10.01;81.89
10948;BME280;5526;42.070;24.752;2023-03-21T04:18:02;98805.59;;;9.95;81.82
10948;BME280;5526;42.070;24.752;2023-03-21T04:20:29;98800.50;;;9.84;81.74
10948;BME280;5526;42.070;24.752;2023-03-21T04:22:56;98811.91;;;9.94;81.55
10948;BME280;5526;42.070;24.752;2023-03-21T04:25:23;98812.91;;;9.88;82.40
10948;BME280;5526;42.070;24.752;2023-03-21T04:27:52;98819.50;;;9.91;81.59
10948;BME280;5526;42.070;24.752;2023-03-21T04:30:21;98825.81;;;9.95;81.10
10948;BME280;5526;42.070;24.752;2023-03-21T04:32:49;98822.13;;;9.96;81.48
10948;BME280;5526;42.070;24.752;2023-03-21T04:35:19;98815.09;;;10.01;80.62
10948;BME280;5526;42.070;24.752;2023-03-21T04:37:46;98818.50;;;10.02;80.75
10948;BME280;5526;42.070;24.752;2023-03-21T04:40:13;98821.38;;;10.00;81.10
10948;BME280;5526;42.070;24.752;2023-03-21T04:42:42;98827.44;;;10.01;80.72
10948;BME280;5526;42.070;24.752;2023-03-21T04:45:10;98822.19;;;10.01;80.78
10948;BME280;5526;42.070;24.752;2023-03-21T04:47:39;98815.38;;;10.05;80.49
10948;BME280;5526;42.070;24.752;2023-03-21T04:50:06;98822.81;;;10.08;80.09
10948;BME280;5526;42.070;24.752;2023-03-21T04:52:34;98825.16;;;10.09;80.53
10948;BME280;5526;42.070;24.752;2023-03-21T04:55:01;98823.88;;;10.12;80.68
10948;BME280;5526;42.070;24.752;2023-03-21T04:57:28;98831.28;;;10.20;80.17
10948;BME280;5526;42.070;24.752;2023-03-21T04:59:54;98836.25;;;10.21;80.19
10948;BME280;5526;42.070;24.752;2023-03-21T05:02:21;98839.47;;;10.28;80.21
10948;BME280;5526;42.070;24.752;2023-03-21T05:04:50;98842.66;;;10.35;79.65
10948;BME280;5526;42.070;24.752;2023-03-21T05:07:17;98847.16;;;10.40;79.66
10948;BME280;5526;42.070;24.752;2023-03-21T05:09:43;98845.38;;;10.45;79.27
10948;BME280;5526;42.070;24.752;2023-03-21T05:12:10;98846.13;;;10.46;79.81
10948;BME280;5526;42.070;24.752;2023-03-21T05:14:37;98843.75;;;10.44;80.44
10948;BME280;5526;42.070;24.752;2023-03-21T05:17:04;98833.53;;;10.48;81.04
10948;BME280;5526;42.070;24.752;2023-03-21T05:19:31;98843.25;;;10.47;81.43
10948;BME280;5526;42.070;24.752;2023-03-21T05:22:02;98844.66;;;10.65;81.14
10948;BME280;5526;42.070;24.752;2023-03-21T05:24:34;98851.03;;;10.84;80.15
10948;BME280;5526;42.070;24.752;2023-03-21T05:27:04;98848.22;;;11.00;79.73
10948;BME280;5526;42.070;24.752;2023-03-21T05:29:31;98837.44;;;11.17;79.38
10948;BME280;5526;42.070;24.752;2023-03-21T05:31:59;98822.44;;;11.22;78.53
10948;BME280;5526;42.070;24.752;2023-03-21T05:34:27;98838.53;;;11.41;78.26
10948;BME280;5526;42.070;24.752;2023-03-21T05:36:54;98826.13;;;11.46;78.28
10948;BME280;5526;42.070;24.752;2023-03-21T05:39:22;98830.63;;;11.51;78.78
10948;BME280;5526;42.070;24.752;2023-03-21T05:41:49;98827.19;;;11.50;78.86
10948;BME280;5526;42.070;24.752;2023-03-21T05:44:16;98835.13;;;11.55;78.74
10948;BME280;5526;42.070;24.752;2023-03-21T05:46:43;98838.28;;;11.57;78.89
10948;BME280;5526;42.070;24.752;2023-03-21T05:49:10;98836.47;;;11.63;78.37
10948;BME280;5526;42.070;24.752;2023-03-21T05:51:37;98832.78;;;11.74;78.35
10948;BME280;5526;42.070;24.752;2023-03-21T05:54:05;98820.63;;;11.68;78.47
10948;BME280;5526;42.070;24.752;2023-03-21T05:56:33;98826.41;;;11.60;79.48
10948;BME280;5526;42.070;24.752;2023-03-21T05:59:00;98830.66;;;11.66;79.19
10948;BME280;5526;42.070;24.752;2023-03-21T06:01:27;98829.88;;;11.75;78.72
10948;BME280;5526;42.070;24.752;2023-03-21T06:03:54;98825.13;;;11.77;78.92
10948;BME280;5526;42.070;24.752;2023-03-21T06:06:21;98832.78;;;11.84;79.25
10948;BME280;5526;42.070;24.752;2023-03-21T06:08:48;98829.59;;;11.92;79.28
10948;BME280;5526;42.070;24.752;2023-03-21T06:11:21;98831.16;;;12.13;78.42
10948;BME280;5526;42.070;24.752;2023-03-21T06:13:50;98832.72;;;12.14;77.82
10948;BME280;5526;42.070;24.752;2023-03-21T06:16:17;98829.28;;;12.23;77.37
10948;BME280;5526;42.070;24.752;2023-03-21T06:18:44;98829.75;;;12.45;76.39
10948;BME280;5526;42.070;24.752;2023-03-21T06:21:11;98825.72;;;12.63;75.40
10948;BME280;5526;42.070;24.752;2023-03-21T06:23:38;98829.38;;;12.72;75.13
10948;BME280;5526;42.070;24.752;2023-03-21T06:26:05;98825.66;;;12.78;74.84
10948;BME280;5526;42.070;24.752;2023-03-21T06:28:32;98830.94;;;12.73;75.06
10948;BME280;5526;42.070;24.752;2023-03-21T06:31:01;98841.78;;;12.71;74.72
10948;BME280;5526;42.070;24.752;2023-03-21T06:33:28;98842.53;;;12.82;75.00
10948;BME280;5526;42.070;24.752;2023-03-21T06:35:56;98838.09;;;12.67;76.08
10948;BME280;5526;42.070;24.752;2023-03-21T06:38:24;98811.00;;;12.47;76.27
10948;BME280;5526;42.070;24.752;2023-03-21T06:40:51;98828.38;;;12.53;76.71
10948;BME280;5526;42.070;24.752;2023-03-21T06:43:18;98841.03;;;12.66;77.33
10948;BME280;5526;42.070;24.752;2023-03-21T06:45:45;98838.31;;;12.76;77.49
10948;BME280;5526;42.070;24.752;2023-03-21T06:48:14;98840.47;;;12.69;78.01
10948;BME280;5526;42.070;24.752;2023-03-21T06:50:41;98842.00;;;12.80;77.91
10948;BME280;5526;42.070;24.752;2023-03-21T06:53:08;98843.84;;;12.79;77.45
10948;BME280;5526;42.070;24.752;2023-03-21T06:55:35;98844.88;;;12.88;77.82
10948;BME280;5526;42.070;24.752;2023-03-21T06:58:02;98849.84;;;13.05;77.26
10948;BME280;5526;42.070;24.752;2023-03-21T07:00:29;98845.59;;;13.09;77.35
10948;BME280;5526;42.070;24.752;2023-03-21T07:02:57;98857.75;;;13.10;77.15
10948;BME280;5526;42.070;24.752;2023-03-21T07:05:25;98850.78;;;13.29;76.33
10948;BME280;5526;42.070;24.752;2023-03-21T07:07:52;98855.66;;;13.46;75.88
10948;BME280;5526;42.070;24.752;2023-03-21T07:10:19;98855.25;;;13.67;75.27
10948;BME280;5526;42.070;24.752;2023-03-21T07:12:46;98855.31;;;13.91;74.66
10948;BME280;5526;42.070;24.752;2023-03-21T07:15:13;98852.03;;;14.04;74.13
10948;BME280;5526;42.070;24.752;2023-03-21T07:17:40;98854.63;;;14.37;73.07
10948;BME280;5526;42.070;24.752;2023-03-21T07:20:08;98851.75;;;14.34;72.90
10948;BME280;5526;42.070;24.752;2023-03-21T07:22:38;98860.66;;;14.43;72.41
10948;BME280;5526;42.070;24.752;2023-03-21T07:25:06;98847.41;;;14.43;72.40
10948;BME280;5526;42.070;24.752;2023-03-21T07:27:34;98849.16;;;14.52;71.70
10948;BME280;5526;42.070;24.752;2023-03-21T07:30:01;98850.06;;;14.43;72.54
10948;BME280;5526;42.070;24.752;2023-03-21T07:32:31;98845.06;;;14.65;72.30
10948;BME280;5526;42.070;24.752;2023-03-21T07:34:58;98843.06;;;14.52;72.54
10948;BME280;5526;42.070;24.752;2023-03-21T07:37:25;98842.63;;;14.68;72.74
10948;BME280;5526;42.070;24.752;2023-03-21T07:39:54;98834.06;;;14.76;71.93
10948;BME280;5526;42.070;24.752;2023-03-21T07:42:21;98836.50;;;14.91;71.40
10948;BME280;5526;42.070;24.752;2023-03-21T07:44:48;98833.88;;;15.10;70.92
10948;BME280;5526;42.070;24.752;2023-03-21T07:47:15;98831.94;;;15.34;70.38
10948;BME280;5526;42.070;24.752;2023-03-21T07:49:42;98832.03;;;15.66;68.51
10948;BME280;5526;42.070;24.752;2023-03-21T07:52:09;98829.31;;;15.84;65.99
10948;BME280;5526;42.070;24.752;2023-03-21T07:54:36;98830.16;;;16.25;64.01
10948;BME280;5526;42.070;24.752;2023-03-21T07:57:05;98835.00;;;16.23;63.82
10948;BME280;5526;42.070;24.752;2023-03-21T07:59:32;98832.63;;;16.22;63.05
10948;BME280;5526;42.070;24.752;2023-03-21T08:01:59;98833.31;;;16.27;62.65
10948;BME280;5526;42.070;24.752;2023-03-21T08:04:26;98826.25;;;16.36;62.83
10948;BME280;5526;42.070;24.752;2023-03-21T08:06:54;98816.13;;;16.38;62.35
10948;BME280;5526;42.070;24.752;2023-03-21T08:09:21;98826.09;;;16.46;61.38
10948;BME280;5526;42.070;24.752;2023-03-21T08:11:49;98822.84;;;16.49;61.78
10948;BME280;5526;42.070;24.752;2023-03-21T08:14:18;98822.22;;;16.79;61.24
10948;BME280;5526;42.070;24.752;2023-03-21T08:16:46;98815.03;;;16.93;60.88
10948;BME280;5526;42.070;24.752;2023-03-21T08:19:13;98817.44;;;17.03;60.27
10948;BME280;5526;42.070;24.752;2023-03-21T08:21:40;98820.56;;;17.55;56.25
10948;BME280;5526;42.070;24.752;2023-03-21T08:24:07;98823.44;;;17.09;56.45
10948;BME280;5526;42.070;24.752;2023-03-21T08:26:34;98818.97;;;16.82;56.18
10948;BME280;5526;42.070;24.752;2023-03-21T08:29:01;98820.09;;;17.03;55.61
10948;BME280;5526;42.070;24.752;2023-03-21T08:31:29;98822.69;;;17.31;55.37
10948;BME280;5526;42.070;24.752;2023-03-21T08:33:56;98816.09;;;17.42;55.83
10948;BME280;5526;42.070;24.752;2023-03-21T08:36:23;98818.66;;;18.30;51.59
10948;BME280;5526;42.070;24.752;2023-03-21T08:38:50;98827.91;;;17.36;54.72
10948;BME280;5526;42.070;24.752;2023-03-21T08:41:21;98820.28;;;17.21;55.07
10948;BME280;5526;42.070;24.752;2023-03-21T08:43:50;98822.69;;;17.09;54.84
10948;BME280;5526;42.070;24.752;2023-03-21T08:46:17;98821.38;;;17.06;55.12
10948;BME280;5526;42.070;24.752;2023-03-21T08:48:45;98823.00;;;17.29;55.02
10948;BME280;5526;42.070;24.752;2023-03-21T08:51:12;98818.91;;;17.45;54.23
10948;BME280;5526;42.070;24.752;2023-03-21T08:53:39;98819.88;;;17.49;54.71
10948;BME280;5526;42.070;24.752;2023-03-21T08:56:07;98819.66;;;17.59;54.58
10948;BME280;5526;42.070;24.752;2023-03-21T08:58:35;98822.03;;;17.61;54.61
10948;BME280;5526;42.070;24.752;2023-03-21T09:01:02;98815.84;;;17.52;54.77
10948;BME280;5526;42.070;24.752;2023-03-21T09:03:29;98821.72;;;17.27;55.19
10948;BME280;5526;42.070;24.752;2023-03-21T09:05:58;98807.22;;;17.33;54.85
10948;BME280;5526;42.070;24.752;2023-03-21T09:08:25;98806.84;;;17.26;55.52
10948;BME280;5526;42.070;24.752;2023-03-21T09:10:52;98808.59;;;17.44;55.24
10948;BME280;5526;42.070;24.752;2023-03-21T09:13:20;98809.19;;;17.41;54.52
10948;BME280;5526;42.070;24.752;2023-03-21T09:15:47;98811.91;;;17.71;53.88
10948;BME280;5526;42.070;24.752;2023-03-21T09:18:14;98816.09;;;17.64;52.65
10948;BME280;5526;42.070;24.752;2023-03-21T09:20:44;98793.22;;;17.41;52.82
10948;BME280;5526;42.070;24.752;2023-03-21T09:23:13;98806.00;;;18.05;51.09
10948;BME280;5526;42.070;24.752;2023-03-21T09:25:41;98800.63;;;18.83;48.47
10948;BME280;5526;42.070;24.752;2023-03-21T09:28:10;98808.53;;;18.49;50.24
10948;BME280;5526;42.070;24.752;2023-03-21T09:30:38;98797.06;;;19.21;48.10
10948;BME280;5526;42.070;24.752;2023-03-21T09:33:05;98787.91;;;19.82;45.67
10948;BME280;5526;42.070;24.752;2023-03-21T09:35:37;98787.81;;;19.53;47.16
10948;BME280;5526;42.070;24.752;2023-03-21T09:38:04;98790.31;;;19.66;47.13
10948;BME280;5526;42.070;24.752;2023-03-21T09:40:55;98788.66;;;19.99;45.45
10948;BME280;5526;42.070;24.752;2023-03-21T09:43:35;98781.28;;;19.96;45.11
10948;BME280;5526;42.070;24.752;2023-03-21T09:46:10;98773.50;;;20.58;43.91
10948;BME280;5526;42.070;24.752;2023-03-21T09:48:44;98773.38;;;20.75;43.78
10948;BME280;5526;42.070;24.752;2023-03-21T09:51:14;98777.69;;;20.67;44.15
10948;BME280;5526;42.070;24.752;2023-03-21T09:53:46;98775.56;;;20.52;43.50
10948;BME280;5526;42.070;24.752;2023-03-21T09:56:16;98772.59;;;20.08;44.63
10948;BME280;5526;42.070;24.752;2023-03-21T09:58:45;98754.53;;;19.16;45.66
10948;BME280;5526;42.070;24.752;2023-03-21T10:01:20;98768.63;;;21.10;43.00
10948;BME280;5526;42.070;24.752;2023-03-21T10:03:53;98763.72;;;20.33;43.48
10948;BME280;5526;42.070;24.752;2023-03-21T10:06:21;98756.56;;;20.16;44.04
10948;BME280;5526;42.070;24.752;2023-03-21T10:08:54;98764.41;;;19.67;44.73
10948;BME280;5526;42.070;24.752;2023-03-21T10:11:27;98764.38;;;19.75;45.00
10948;BME280;5526;42.070;24.752;2023-03-21T10:13:57;98749.44;;;19.83;44.48
10948;BME280;5526;42.070;24.752;2023-03-21T10:16:27;98754.00;;;19.74;44.29
10948;BME280;5526;42.070;24.752;2023-03-21T10:18:55;98759.00;;;19.84;43.79
10948;BME280;5526;42.070;24.752;2023-03-21T10:21:24;98755.84;;;19.82;43.73
10948;BME280;5526;42.070;24.752;2023-03-21T10:23:55;98758.88;;;19.80;43.38
10948;BME280;5526;42.070;24.752;2023-03-21T10:26:27;98747.78;;;19.61;44.36
10948;BME280;5526;42.070;24.752;2023-03-21T10:28:57;98744.28;;;19.69;44.34
10948;BME280;5526;42.070;24.752;2023-03-21T10:31:27;98746.66;;;19.62;44.93
10948;BME280;5526;42.070;24.752;2023-03-21T10:34:00;98752.50;;;19.47;45.43
10948;BME280;5526;42.070;24.752;2023-03-21T10:36:30;98751.41;;;18.97;46.66
10948;BME280;5526;42.070;24.752;2023-03-21T10:39:00;98743.25;;;18.77;47.13
10948;BME280;5526;42.070;24.752;2023-03-21T10:41:31;98739.31;;;18.91;47.11
10948;BME280;5526;42.070;24.752;2023-03-21T10:44:06;98731.00;;;19.18;47.16
10948;BME280;5526;42.070;24.752;2023-03-21T10:46:34;98720.47;;;19.22;46.73
10948;BME280;5526;42.070;24.752;2023-03-21T10:49:01;98720.81;;;19.37;46.10
10948;BME280;5526;42.070;24.752;2023-03-21T10:51:31;98712.34;;;19.10;46.65
10948;BME280;5526;42.070;24.752;2023-03-21T10:54:03;98719.88;;;18.99;47.24
10948;BME280;5526;42.070;24.752;2023-03-21T10:56:35;98712.97;;;19.15;47.46
10948;BME280;5526;42.070;24.752;2023-03-21T10:59:04;98711.84;;;19.42;46.40
10948;BME280;5526;42.070;24.752;2023-03-21T11:01:35;98706.38;;;19.38;45.85
10948;BME280;5526;42.070;24.752;2023-03-21T11:04:06;98696.94;;;19.32;45.27
10948;BME280;5526;42.070;24.752;2023-03-21T11:06:37;98693.63;;;19.44;45.10
10948;BME280;5526;42.070;24.752;2023-03-21T11:09:08;98692.09;;;19.34;44.96
10948;BME280;5526;42.070;24.752;2023-03-21T11:11:40;98683.06;;;19.56;44.47
10948;BME280;5526;42.070;24.752;2023-03-21T11:14:31;98671.00;;;19.87;43.37
10948;BME280;5526;42.070;24.752;2023-03-21T11:16:59;98667.00;;;19.64;44.58
10948;BME280;5526;42.070;24.752;2023-03-21T11:19:30;98661.66;;;19.73;44.47
10948;BME280;5526;42.070;24.752;2023-03-21T11:21:58;98640.31;;;19.64;43.93
10948;BME280;5526;42.070;24.752;2023-03-21T11:24:30;98667.59;;;20.07;44.02
10948;BME280;5526;42.070;24.752;2023-03-21T11:27:05;98664.97;;;20.36;43.43
10948;BME280;5526;42.070;24.752;2023-03-21T11:29:33;98654.03;;;20.70;43.20
10948;BME280;5526;42.070;24.752;2023-03-21T11:32:09;98664.19;;;20.98;42.26
10948;BME280;5526;42.070;24.752;2023-03-21T11:34:43;98645.75;;;21.73;39.95
10948;BME280;5526;42.070;24.752;2023-03-21T11:37:18;98646.28;;;21.67;40.70
10948;BME280;5526;42.070;24.752;2023-03-21T11:39:45;98632.50;;;21.32;41.67
10948;BME280;5526;42.070;24.752;2023-03-21T11:42:27;98641.53;;;20.95;41.31
10948;BME280;5526;42.070;24.752;2023-03-21T11:45:06;98579.41;;;20.57;41.59
10948;BME280;5526;42.070;24.752;2023-03-21T11:47:36;98628.94;;;20.75;42.60
10948;BME280;5526;42.070;24.752;2023-03-21T11:50:15;98620.13;;;20.95;42.50
10948;BME280;5526;42.070;24.752;2023-03-21T11:52:53;98620.16;;;20.33;43.95
10948;BME280;5526;42.070;24.752;2023-03-21T11:55:33;98608.78;;;20.45;43.59
10948;BME280;5526;42.070;24.752;2023-03-21T11:58:19;98621.59;;;20.72;43.80
10948;BME280;5526;42.070;24.752;2023-03-21T12:00:53;98613.56;;;20.72;43.72
10948;BME280;5526;42.070;24.752;2023-03-21T12:03:37;98615.50;;;20.83;43.54
10948;BME280;5526;42.070;24.752;2023-03-21T12:06:18;98604.19;;;20.66;44.32
10948;BME280;5526;42.070;24.752;2023-03-21T12:08:55;98600.59;;;20.62;45.26
10948;BME280;5526;42.070;24.752;2023-03-21T12:11:35;98602.03;;;20.39;46.11
10948;BME280;5526;42.070;24.752;2023-03-21T12:14:13;98591.41;;;20.30;46.46
10948;BME280;5526;42.070;24.752;2023-03-21T12:16:52;98597.34;;;20.36;47.01
10948;BME280;5526;42.070;24.752;2023-03-21T12:19:42;98593.44;;;19.84;48.78
10948;BME280;5526;42.070;24.752;2023-03-21T12:22:16;98588.19;;;19.67;49.15
10948;BME280;5526;42.070;24.752;2023-03-21T12:24:51;98592.03;;;19.49;49.67
10948;BME280;5526;42.070;24.752;2023-03-21T12:27:28;98595.31;;;19.54;49.94
10948;BME280;5526;42.070;24.752;2023-03-21T12:30:13;98582.78;;;19.46;50.84
10948;BME280;5526;42.070;24.752;2023-03-21T12:32:57;98582.06;;;19.29;51.38
10948;BME280;5526;42.070;24.752;2023-03-21T12:35:39;98576.38;;;20.26;48.61
10948;BME280;5526;42.070;24.752;2023-03-21T12:38:15;98571.25;;;19.63;50.45
10948;BME280;5526;42.070;24.752;2023-03-21T12:40:54;98557.94;;;19.54;51.17
10948;BME280;5526;42.070;24.752;2023-03-21T12:43:32;98558.94;;;19.41;51.68
10948;BME280;5526;42.070;24.752;2023-03-21T12:46:05;98556.22;;;19.50;51.30
10948;BME280;5526;42.070;24.752;2023-03-21T12:48:39;98559.75;;;19.71;51.00
10948;BME280;5526;42.070;24.752;2023-03-21T12:51:11;98560.59;;;19.83;50.68
10948;BME280;5526;42.070;24.752;2023-03-21T12:53:47;98564.84;;;19.84;50.62
10948;BME280;5526;42.070;24.752;2023-03-21T12:56:20;98560.66;;;19.95;50.47
10948;BME280;5526;42.070;24.752;2023-03-21T12:58:52;98557.31;;;19.78;50.89
10948;BME280;5526;42.070;24.752;2023-03-21T13:01:23;98555.38;;;19.58;51.22
10948;BME280;5526;42.070;24.752;2023-03-21T13:04:19;98553.63;;;19.33;51.17
10948;BME280;5526;42.070;24.752;2023-03-21T13:06:51;98548.34;;;19.16;51.74
10948;BME280;5526;42.070;24.752;2023-03-21T13:09:27;98554.56;;;19.37;51.61
10948;BME280;5526;42.070;24.752;2023-03-21T13:12:01;98555.63;;;19.44;51.70
10948;BME280;5526;42.070;24.752;2023-03-21T13:14:35;98549.50;;;19.44;51.76
10948;BME280;5526;42.070;24.752;2023-03-21T13:17:10;98551.97;;;19.57;51.28
10948;BME280;5526;42.070;24.752;2023-03-21T13:19:44;98556.16;;;19.67;51.25